sensor_id;sensor_type;location;lat;lon;timestamp;temperature;humidity
1570;DHT22;778;50.120;8.698;2022-09-03T00:01:00;18.70;63.10
1570;DHT22;778;50.120;8.698;2022-09-03T00:03:39;18.60;63.30
1570;DHT22;778;50.120;8.698;2022-09-03T00:06:13;18.60;63.50
1570;DHT22;778;50.120;8.698;2022-09-03T00:08:47;18.50;63.80
1570;DHT22;778;50.120;8.698;2022-09-03T00:11:20;18.50;64.20
1570;DHT22;778;50.120;8.698;2022-09-03T00:13:57;18.50;64.30
1570;DHT22;778;50.120;8.698;2022-09-03T00:16:33;18.50;64.60
1570;DHT22;778;50.120;8.698;2022-09-03T00:19:11;18.50;64.90
1570;DHT22;778;50.120;8.698;2022-09-03T00:21:46;18.50;65.20
1570;DHT22;778;50.120;8.698;2022-09-03T00:24:20;18.40;65.20
1570;DHT22;778;50.120;8.698;2022-09-03T00:26:54;18.40;65.50
1570;DHT22;778;50.120;8.698;2022-09-03T00:29:30;18.40;65.70
1570;DHT22;778;50.120;8.698;2022-09-03T00:32:05;18.40;66.10
1570;DHT22;778;50.120;8.698;2022-09-03T00:34:39;18.40;66.20
1570;DHT22;778;50.120;8.698;2022-09-03T00:37:10;18.40;66.60
1570;DHT22;778;50.120;8.698;2022-09-03T00:39:41;18.30;66.80
1570;DHT22;778;50.120;8.698;2022-09-03T00:42:29;18.40;67.30
1570;DHT22;778;50.120;8.698;2022-09-03T00:45:22;18.30;67.10
1570;DHT22;778;50.120;8.698;2022-09-03T00:48:11;18.40;67.50
1570;DHT22;778;50.120;8.698;2022-09-03T00:51:06;18.40;67.80
1570;DHT22;778;50.120;8.698;2022-09-03T00:53:44;18.40;68.20
1570;DHT22;778;50.120;8.698;2022-09-03T00:56:25;18.30;68.50
1570;DHT22;778;50.120;8.698;2022-09-03T00:59:05;18.20;68.90
1570;DHT22;778;50.120;8.698;2022-09-03T01:01:47;18.20;69.20
1570;DHT22;778;50.120;8.698;2022-09-03T01:04:31;18.20;69.60
1570;DHT22;778;50.120;8.698;2022-09-03T01:07:11;18.10;69.90
1570;DHT22;778;50.120;8.698;2022-09-03T01:09:51;18.10;70.30
1570;DHT22;778;50.120;8.698;2022-09-03T01:12:35;18.10;70.40
1570;DHT22;778;50.120;8.698;2022-09-03T01:15:13;18.10;71.00
1570;DHT22;778;50.120;8.698;2022-09-03T01:17:58;18.10;71.20
1570;DHT22;778;50.120;8.698;2022-09-03T01:20:49;18.10;71.50
1570;DHT22;778;50.120;8.698;2022-09-03T01:23:42;18.10;71.90
1570;DHT22;778;50.120;8.698;2022-09-03T01:26:45;18.10;72.20
1570;DHT22;778;50.120;8.698;2022-09-03T01:29:25;18.10;72.70
1570;DHT22;778;50.120;8.698;2022-09-03T01:32:01;18.10;72.90
1570;DHT22;778;50.120;8.698;2022-09-03T01:34:42;18.10;73.20
1570;DHT22;778;50.120;8.698;2022-09-03T01:37:25;18.10;73.40
1570;DHT22;778;50.120;8.698;2022-09-03T01:40:07;18.10;73.60
1570;DHT22;778;50.120;8.698;2022-09-03T01:42:50;18.10;74.00
1570;DHT22;778;50.120;8.698;2022-09-03T01:45:36;18.10;74.00
1570;DHT22;778;50.120;8.698;2022-09-03T01:48:34;18.10;74.20
1570;DHT22;778;50.120;8.698;2022-09-03T01:51:16;18.10;74.50
1570;DHT22;778;50.120;8.698;2022-09-03T02:00:07;18.10;75.50
1570;DHT22;778;50.120;8.698;2022-09-03T02:02:42;18.10;75.60
1570;DHT22;778;50.120;8.698;2022-09-03T02:05:16;18.20;75.90
1570;DHT22;778;50.120;8.698;2022-09-03T02:07:56;18.10;76.00
1570;DHT22;778;50.120;8.698;2022-09-03T02:10:29;18.10;76.60
1570;DHT22;778;50.120;8.698;2022-09-03T02:13:03;18.10;77.00
1570;DHT22;778;50.120;8.698;2022-09-03T02:15:37;18.10;76.80
1570;DHT22;778;50.120;8.698;2022-09-03T02:18:12;18.10;76.80
1570;DHT22;778;50.120;8.698;2022-09-03T02:20:44;18.20;77.80
1570;DHT22;778;50.120;8.698;2022-09-03T02:23:14;18.20;77.10
1570;DHT22;778;50.120;8.698;2022-09-03T02:25:56;18.20;77.40
1570;DHT22;778;50.120;8.698;2022-09-03T02:28:27;18.20;77.40
1570;DHT22;778;50.120;8.698;2022-09-03T02:30:57;18.20;78.00
1570;DHT22;778;50.120;8.698;2022-09-03T02:33:35;18.20;78.40
1570;DHT22;778;50.120;8.698;2022-09-03T02:36:08;18.10;78.80
1570;DHT22;778;50.120;8.698;2022-09-03T02:38:39;18.00;79.10
1570;DHT22;778;50.120;8.698;2022-09-03T02:41:08;17.80;79.70
1570;DHT22;778;50.120;8.698;2022-09-03T02:43:44;17.60;80.70
1570;DHT22;778;50.120;8.698;2022-09-03T02:46:19;17.60;81.80
1570;DHT22;778;50.120;8.698;2022-09-03T02:48:51;17.50;82.80
1570;DHT22;778;50.120;8.698;2022-09-03T02:51:20;17.50;83.70
1570;DHT22;778;50.120;8.698;2022-09-03T02:53:49;17.50;83.90
1570;DHT22;778;50.120;8.698;2022-09-03T02:56:17;17.50;83.80
1570;DHT22;778;50.120;8.698;2022-09-03T02:58:46;17.60;84.10
1570;DHT22;778;50.120;8.698;2022-09-03T03:01:14;17.80;86.90
1570;DHT22;778;50.120;8.698;2022-09-03T03:03:51;18.00;85.80
1570;DHT22;778;50.120;8.698;2022-09-03T03:06:20;18.20;86.10
1570;DHT22;778;50.120;8.698;2022-09-03T03:08:49;18.30;84.80
1570;DHT22;778;50.120;8.698;2022-09-03T03:11:18;18.30;84.60
1570;DHT22;778;50.120;8.698;2022-09-03T03:13:48;18.30;83.80
1570;DHT22;778;50.120;8.698;2022-09-03T03:16:17;18.20;84.00
1570;DHT22;778;50.120;8.698;2022-09-03T03:18:46;18.30;85.90
1570;DHT22;778;50.120;8.698;2022-09-03T03:21:17;18.30;84.30
1570;DHT22;778;50.120;8.698;2022-09-03T03:23:45;18.40;84.00
1570;DHT22;778;50.120;8.698;2022-09-03T03:26:15;18.30;85.00
1570;DHT22;778;50.120;8.698;2022-09-03T03:28:45;18.30;85.30
1570;DHT22;778;50.120;8.698;2022-09-03T03:31:16;18.30;85.40
1570;DHT22;778;50.120;8.698;2022-09-03T03:33:49;18.40;85.40
1570;DHT22;778;50.120;8.698;2022-09-03T03:36:21;18.50;85.30
1570;DHT22;778;50.120;8.698;2022-09-03T03:38:52;18.50;85.40
1570;DHT22;778;50.120;8.698;2022-09-03T03:41:23;18.50;85.30
1570;DHT22;778;50.120;8.698;2022-09-03T03:43:53;18.40;85.40
1570;DHT22;778;50.120;8.698;2022-09-03T03:46:22;18.40;85.50
1570;DHT22;778;50.120;8.698;2022-09-03T03:48:52;18.30;86.00
1570;DHT22;778;50.120;8.698;2022-09-03T03:51:22;18.30;86.40
1570;DHT22;778;50.120;8.698;2022-09-03T03:53:53;18.30;86.80
1570;DHT22;778;50.120;8.698;2022-09-03T03:56:24;18.30;87.80
1570;DHT22;778;50.120;8.698;2022-09-03T03:58:54;18.50;86.60
1570;DHT22;778;50.120;8.698;2022-09-03T04:01:25;18.70;85.70
1570;DHT22;778;50.120;8.698;2022-09-03T04:03:54;18.70;85.60
1570;DHT22;778;50.120;8.698;2022-09-03T04:06:25;18.80;85.00
1570;DHT22;778;50.120;8.698;2022-09-03T04:08:55;18.70;85.00
1570;DHT22;778;50.120;8.698;2022-09-03T04:11:23;18.70;85.10
1570;DHT22;778;50.120;8.698;2022-09-03T04:13:52;18.70;85.80
1570;DHT22;778;50.120;8.698;2022-09-03T04:16:22;18.70;85.30
1570;DHT22;778;50.120;8.698;2022-09-03T04:18:52;18.70;85.50
1570;DHT22;778;50.120;8.698;2022-09-03T04:21:23;18.60;86.00
1570;DHT22;778;50.120;8.698;2022-09-03T04:23:55;18.70;86.00
1570;DHT22;778;50.120;8.698;2022-09-03T04:26:26;18.70;86.00
1570;DHT22;778;50.120;8.698;2022-09-03T04:28:57;18.70;85.60
1570;DHT22;778;50.120;8.698;2022-09-03T04:31:27;18.70;86.20
1570;DHT22;778;50.120;8.698;2022-09-03T04:33:57;18.70;86.30
1570;DHT22;778;50.120;8.698;2022-09-03T04:36:29;18.70;86.10
1570;DHT22;778;50.120;8.698;2022-09-03T04:38:58;18.70;86.30
1570;DHT22;778;50.120;8.698;2022-09-03T04:41:30;18.70;86.50
1570;DHT22;778;50.120;8.698;2022-09-03T04:43:59;18.70;87.20
1570;DHT22;778;50.120;8.698;2022-09-03T04:46:28;18.60;87.10
1570;DHT22;778;50.120;8.698;2022-09-03T04:49:00;18.50;88.00
1570;DHT22;778;50.120;8.698;2022-09-03T04:51:30;18.30;88.80
1570;DHT22;778;50.120;8.698;2022-09-03T04:54:00;18.30;89.80
1570;DHT22;778;50.120;8.698;2022-09-03T04:56:30;18.20;90.20
1570;DHT22;778;50.120;8.698;2022-09-03T04:59:02;18.20;90.50
1570;DHT22;778;50.120;8.698;2022-09-03T05:01:33;18.10;90.70
1570;DHT22;778;50.120;8.698;2022-09-03T05:04:04;18.10;91.00
1570;DHT22;778;50.120;8.698;2022-09-03T05:06:35;18.10;91.30
1570;DHT22;778;50.120;8.698;2022-09-03T05:09:04;18.10;91.50
1570;DHT22;778;50.120;8.698;2022-09-03T05:11:33;18.20;91.80
1570;DHT22;778;50.120;8.698;2022-09-03T05:14:02;18.20;91.70
1570;DHT22;778;50.120;8.698;2022-09-03T05:16:31;18.20;91.70
1570;DHT22;778;50.120;8.698;2022-09-03T05:19:00;18.20;92.00
1570;DHT22;778;50.120;8.698;2022-09-03T05:21:29;18.20;91.90
1570;DHT22;778;50.120;8.698;2022-09-03T05:23:59;18.20;92.10
1570;DHT22;778;50.120;8.698;2022-09-03T05:26:30;18.20;92.20
1570;DHT22;778;50.120;8.698;2022-09-03T05:29:00;18.20;92.30
1570;DHT22;778;50.120;8.698;2022-09-03T05:31:35;18.20;92.30
1570;DHT22;778;50.120;8.698;2022-09-03T05:34:05;18.20;92.40
1570;DHT22;778;50.120;8.698;2022-09-03T05:36:39;18.20;92.70
1570;DHT22;778;50.120;8.698;2022-09-03T05:39:09;18.20;92.90
1570;DHT22;778;50.120;8.698;2022-09-03T05:41:37;18.30;93.00
1570;DHT22;778;50.120;8.698;2022-09-03T05:44:06;18.30;93.00
1570;DHT22;778;50.120;8.698;2022-09-03T05:46:35;18.20;93.20
1570;DHT22;778;50.120;8.698;2022-09-03T05:49:05;18.20;93.50
1570;DHT22;778;50.120;8.698;2022-09-03T05:51:35;18.30;93.60
1570;DHT22;778;50.120;8.698;2022-09-03T05:54:05;18.30;93.80
1570;DHT22;778;50.120;8.698;2022-09-03T05:56:37;18.30;94.00
1570;DHT22;778;50.120;8.698;2022-09-03T05:59:09;18.30;94.20
1570;DHT22;778;50.120;8.698;2022-09-03T06:01:41;18.20;94.40
1570;DHT22;778;50.120;8.698;2022-09-03T06:04:17;18.20;94.70
1570;DHT22;778;50.120;8.698;2022-09-03T06:06:47;18.20;94.90
1570;DHT22;778;50.120;8.698;2022-09-03T06:09:17;18.20;95.10
1570;DHT22;778;50.120;8.698;2022-09-03T06:11:48;18.20;95.40
1570;DHT22;778;50.120;8.698;2022-09-03T06:14:18;18.30;95.50
1570;DHT22;778;50.120;8.698;2022-09-03T06:16:48;18.20;95.80
1570;DHT22;778;50.120;8.698;2022-09-03T06:19:19;18.20;96.40
1570;DHT22;778;50.120;8.698;2022-09-03T06:21:47;18.20;96.40
1570;DHT22;778;50.120;8.698;2022-09-03T06:24:17;18.20;96.50
1570;DHT22;778;50.120;8.698;2022-09-03T06:26:53;18.20;96.80
1570;DHT22;778;50.120;8.698;2022-09-03T06:29:22;18.20;97.10
1570;DHT22;778;50.120;8.698;2022-09-03T06:31:50;18.20;97.30
1570;DHT22;778;50.120;8.698;2022-09-03T06:34:19;18.20;97.50
1570;DHT22;778;50.120;8.698;2022-09-03T06:36:48;18.10;97.70
1570;DHT22;778;50.120;8.698;2022-09-03T06:39:20;18.10;97.90
1570;DHT22;778;50.120;8.698;2022-09-03T06:41:49;18.10;98.20
1570;DHT22;778;50.120;8.698;2022-09-03T06:44:27;18.20;98.30
1570;DHT22;778;50.120;8.698;2022-09-03T06:46:55;18.20;98.40
1570;DHT22;778;50.120;8.698;2022-09-03T06:49:27;18.20;98.50
1570;DHT22;778;50.120;8.698;2022-09-03T06:51:56;18.20;98.60
1570;DHT22;778;50.120;8.698;2022-09-03T06:54:24;18.20;98.70
1570;DHT22;778;50.120;8.698;2022-09-03T06:56:53;18.20;98.80
1570;DHT22;778;50.120;8.698;2022-09-03T06:59:21;18.20;98.80
1570;DHT22;778;50.120;8.698;2022-09-03T07:01:51;18.30;98.90
1570;DHT22;778;50.120;8.698;2022-09-03T07:04:21;18.30;98.90
1570;DHT22;778;50.120;8.698;2022-09-03T07:06:50;18.30;99.10
1570;DHT22;778;50.120;8.698;2022-09-03T07:09:19;18.40;99.60
1570;DHT22;778;50.120;8.698;2022-09-03T07:11:47;18.40;99.90
1570;DHT22;778;50.120;8.698;2022-09-03T07:14:17;18.40;99.90
1570;DHT22;778;50.120;8.698;2022-09-03T07:16:48;18.40;99.90
1570;DHT22;778;50.120;8.698;2022-09-03T07:19:18;18.40;99.90
1570;DHT22;778;50.120;8.698;2022-09-03T07:21:46;18.40;99.90
1570;DHT22;778;50.120;8.698;2022-09-03T07:24:17;18.30;99.90
1570;DHT22;778;50.120;8.698;2022-09-03T07:26:48;18.20;99.90
1570;DHT22;778;50.120;8.698;2022-09-03T07:29:17;18.20;99.90
1570;DHT22;778;50.120;8.698;2022-09-03T07:31:48;18.20;99.90
1570;DHT22;778;50.120;8.698;2022-09-03T07:34:21;18.10;99.90
1570;DHT22;778;50.120;8.698;2022-09-03T07:36:52;18.00;99.90
1570;DHT22;778;50.120;8.698;2022-09-03T07:39:21;17.70;99.90
1570;DHT22;778;50.120;8.698;2022-09-03T07:41:50;17.70;99.90
1570;DHT22;778;50.120;8.698;2022-09-03T07:44:18;17.70;99.90
1570;DHT22;778;50.120;8.698;2022-09-03T07:46:47;17.70;99.90
1570;DHT22;778;50.120;8.698;2022-09-03T07:49:19;17.50;99.90
1570;DHT22;778;50.120;8.698;2022-09-03T07:51:49;17.50;99.90
1570;DHT22;778;50.120;8.698;2022-09-03T07:54:19;17.40;99.90
1570;DHT22;778;50.120;8.698;2022-09-03T07:56:50;17.40;99.90
1570;DHT22;778;50.120;8.698;2022-09-03T07:59:18;17.40;99.90
1570;DHT22;778;50.120;8.698;2022-09-03T08:01:49;17.40;99.90
1570;DHT22;778;50.120;8.698;2022-09-03T08:04:19;17.40;99.90
1570;DHT22;778;50.120;8.698;2022-09-03T08:06:48;17.50;99.90
1570;DHT22;778;50.120;8.698;2022-09-03T08:09:21;17.40;99.90
1570;DHT22;778;50.120;8.698;2022-09-03T08:11:49;17.40;99.90
1570;DHT22;778;50.120;8.698;2022-09-03T08:14:18;17.40;99.90
1570;DHT22;778;50.120;8.698;2022-09-03T08:16:46;17.50;99.90
1570;DHT22;778;50.120;8.698;2022-09-03T08:19:16;17.50;99.90
1570;DHT22;778;50.120;8.698;2022-09-03T08:21:46;17.60;99.90
1570;DHT22;778;50.120;8.698;2022-09-03T08:24:16;17.50;99.90
1570;DHT22;778;50.120;8.698;2022-09-03T08:26:47;17.60;99.90
1570;DHT22;778;50.120;8.698;2022-09-03T08:29:19;17.50;99.90
1570;DHT22;778;50.120;8.698;2022-09-03T08:31:48;17.50;99.90
1570;DHT22;778;50.120;8.698;2022-09-03T08:34:16;17.40;99.90
1570;DHT22;778;50.120;8.698;2022-09-03T08:36:46;17.20;99.90
1570;DHT22;778;50.120;8.698;2022-09-03T08:39:17;17.10;99.90
1570;DHT22;778;50.120;8.698;2022-09-03T08:45:00;16.80;99.90
1570;DHT22;778;50.120;8.698;2022-09-03T08:47:33;16.80;99.90
1570;DHT22;778;50.120;8.698;2022-09-03T08:50:10;16.80;99.90
1570;DHT22;778;50.120;8.698;2022-09-03T08:52:47;16.80;99.90
1570;DHT22;778;50.120;8.698;2022-09-03T08:55:21;16.80;99.90
1570;DHT22;778;50.120;8.698;2022-09-03T08:57:56;16.80;99.90
1570;DHT22;778;50.120;8.698;2022-09-03T09:00:39;16.90;99.90
1570;DHT22;778;50.120;8.698;2022-09-03T09:03:40;16.90;99.90
1570;DHT22;778;50.120;8.698;2022-09-03T09:06:17;17.10;99.90
1570;DHT22;778;50.120;8.698;2022-09-03T09:09:00;17.20;99.90
1570;DHT22;778;50.120;8.698;2022-09-03T09:11:42;17.50;99.90
1570;DHT22;778;50.120;8.698;2022-09-03T09:14:19;17.70;99.90
1570;DHT22;778;50.120;8.698;2022-09-03T09:17:00;17.80;99.90
1570;DHT22;778;50.120;8.698;2022-09-03T09:19:40;17.90;99.90
1570;DHT22;778;50.120;8.698;2022-09-03T09:22:20;17.90;99.90
1570;DHT22;778;50.120;8.698;2022-09-03T09:24:56;18.10;99.90
1570;DHT22;778;50.120;8.698;2022-09-03T09:27:27;18.40;99.90
1570;DHT22;778;50.120;8.698;2022-09-03T09:29:58;18.90;99.90
1570;DHT22;778;50.120;8.698;2022-09-03T09:32:28;19.30;99.90
1570;DHT22;778;50.120;8.698;2022-09-03T09:34:57;19.30;99.90
1570;DHT22;778;50.120;8.698;2022-09-03T09:37:26;19.30;99.90
1570;DHT22;778;50.120;8.698;2022-09-03T09:39:58;19.20;99.90
1570;DHT22;778;50.120;8.698;2022-09-03T09:42:28;19.10;99.90
1570;DHT22;778;50.120;8.698;2022-09-03T09:45:08;19.20;99.90
1570;DHT22;778;50.120;8.698;2022-09-03T09:47:38;19.20;99.90
1570;DHT22;778;50.120;8.698;2022-09-03T09:50:16;19.20;99.90
1570;DHT22;778;50.120;8.698;2022-09-03T09:52:59;19.00;99.90
1570;DHT22;778;50.120;8.698;2022-09-03T09:55:32;18.80;99.90
1570;DHT22;778;50.120;8.698;2022-09-03T09:58:07;18.90;99.90
1570;DHT22;778;50.120;8.698;2022-09-03T10:00:40;18.70;99.90
1570;DHT22;778;50.120;8.698;2022-09-03T10:03:10;18.70;99.90
1570;DHT22;778;50.120;8.698;2022-09-03T10:05:39;18.70;99.90
1570;DHT22;778;50.120;8.698;2022-09-03T10:08:18;18.80;99.90
1570;DHT22;778;50.120;8.698;2022-09-03T10:10:50;18.90;99.90
1570;DHT22;778;50.120;8.698;2022-09-03T10:13:20;19.00;99.90
1570;DHT22;778;50.120;8.698;2022-09-03T10:15:56;19.00;99.90
1570;DHT22;778;50.120;8.698;2022-09-03T10:18:34;19.00;99.90
1570;DHT22;778;50.120;8.698;2022-09-03T10:21:10;18.90;99.90
1570;DHT22;778;50.120;8.698;2022-09-03T10:23:53;18.80;99.90
1570;DHT22;778;50.120;8.698;2022-09-03T10:26:35;18.80;99.90
1570;DHT22;778;50.120;8.698;2022-09-03T10:29:06;18.90;99.90
1570;DHT22;778;50.120;8.698;2022-09-03T10:31:47;19.00;99.90
1570;DHT22;778;50.120;8.698;2022-09-03T10:34:31;19.10;99.90
1570;DHT22;778;50.120;8.698;2022-09-03T10:37:13;19.40;99.90
1570;DHT22;778;50.120;8.698;2022-09-03T10:39:54;19.90;99.90
1570;DHT22;778;50.120;8.698;2022-09-03T10:42:40;20.20;99.90
1570;DHT22;778;50.120;8.698;2022-09-03T10:45:18;20.70;99.90
1570;DHT22;778;50.120;8.698;2022-09-03T10:48:06;20.90;99.90
1570;DHT22;778;50.120;8.698;2022-09-03T10:50:56;20.90;99.90
1570;DHT22;778;50.120;8.698;2022-09-03T10:53:36;20.80;99.90
1570;DHT22;778;50.120;8.698;2022-09-03T10:56:12;20.80;99.90
1570;DHT22;778;50.120;8.698;2022-09-03T10:59:16;20.80;99.90
1570;DHT22;778;50.120;8.698;2022-09-03T11:02:10;20.80;99.90
1570;DHT22;778;50.120;8.698;2022-09-03T11:04:51;20.80;99.90
1570;DHT22;778;50.120;8.698;2022-09-03T11:07:27;20.80;99.90
1570;DHT22;778;50.120;8.698;2022-09-03T11:10:09;20.90;99.90
1570;DHT22;778;50.120;8.698;2022-09-03T11:12:43;20.90;99.90
1570;DHT22;778;50.120;8.698;2022-09-03T11:15:24;21.00;99.90
1570;DHT22;778;50.120;8.698;2022-09-03T11:18:00;21.10;99.90
1570;DHT22;778;50.120;8.698;2022-09-03T11:20:31;21.10;99.90
1570;DHT22;778;50.120;8.698;2022-09-03T11:23:03;21.20;99.90
1570;DHT22;778;50.120;8.698;2022-09-03T11:25:40;21.20;99.90
1570;DHT22;778;50.120;8.698;2022-09-03T11:28:20;21.20;99.90
1570;DHT22;778;50.120;8.698;2022-09-03T11:31:05;21.10;99.90
1570;DHT22;778;50.120;8.698;2022-09-03T11:33:44;21.10;99.90
1570;DHT22;778;50.120;8.698;2022-09-03T11:36:24;21.00;99.90
1570;DHT22;778;50.120;8.698;2022-09-03T11:38:56;21.20;99.90
1570;DHT22;778;50.120;8.698;2022-09-03T11:41:27;21.70;99.90
1570;DHT22;778;50.120;8.698;2022-09-03T11:44:11;22.00;99.90
1570;DHT22;778;50.120;8.698;2022-09-03T11:46:54;22.30;99.90
1570;DHT22;778;50.120;8.698;2022-09-03T11:49:27;22.30;99.90
1570;DHT22;778;50.120;8.698;2022-09-03T11:51:59;22.50;99.90
1570;DHT22;778;50.120;8.698;2022-09-03T11:54:31;22.80;99.90
1570;DHT22;778;50.120;8.698;2022-09-03T11:57:10;23.10;99.90
1570;DHT22;778;50.120;8.698;2022-09-03T11:59:41;23.40;99.90
1570;DHT22;778;50.120;8.698;2022-09-03T12:02:23;23.60;99.90
1570;DHT22;778;50.120;8.698;2022-09-03T12:05:13;23.60;99.90
1570;DHT22;778;50.120;8.698;2022-09-03T12:11:21;23.60;99.90
1570;DHT22;778;50.120;8.698;2022-09-03T12:14:03;23.70;99.90
1570;DHT22;778;50.120;8.698;2022-09-03T12:19:49;23.80;99.90
1570;DHT22;778;50.120;8.698;2022-09-03T12:22:21;23.60;99.90
1570;DHT22;778;50.120;8.698;2022-09-03T12:24:50;23.70;99.90
1570;DHT22;778;50.120;8.698;2022-09-03T12:27:21;23.70;99.90
1570;DHT22;778;50.120;8.698;2022-09-03T12:29:53;23.50;99.90
1570;DHT22;778;50.120;8.698;2022-09-03T12:32:29;23.30;99.90
1570;DHT22;778;50.120;8.698;2022-09-03T12:35:10;23.20;99.90
1570;DHT22;778;50.120;8.698;2022-09-03T12:38:00;22.80;99.90
1570;DHT22;778;50.120;8.698;2022-09-03T12:40:34;23.00;99.90
1570;DHT22;778;50.120;8.698;2022-09-03T12:43:27;23.00;99.90
1570;DHT22;778;50.120;8.698;2022-09-03T12:46:13;23.10;99.90
1570;DHT22;778;50.120;8.698;2022-09-03T12:48:52;23.20;99.90
1570;DHT22;778;50.120;8.698;2022-09-03T12:51:42;23.00;99.90
1570;DHT22;778;50.120;8.698;2022-09-03T12:54:17;22.80;99.90
1570;DHT22;778;50.120;8.698;2022-09-03T12:56:52;22.90;99.90
1570;DHT22;778;50.120;8.698;2022-09-03T12:59:23;22.90;99.90
1570;DHT22;778;50.120;8.698;2022-09-03T13:01:57;23.00;99.90
1570;DHT22;778;50.120;8.698;2022-09-03T13:04:32;23.20;99.90
1570;DHT22;778;50.120;8.698;2022-09-03T13:07:04;23.30;99.90
1570;DHT22;778;50.120;8.698;2022-09-03T13:09:36;23.20;99.90
1570;DHT22;778;50.120;8.698;2022-09-03T13:12:06;23.20;99.90
1570;DHT22;778;50.120;8.698;2022-09-03T13:14:42;23.20;99.90
1570;DHT22;778;50.120;8.698;2022-09-03T13:20:25;23.30;99.90
1570;DHT22;778;50.120;8.698;2022-09-03T13:23:08;23.20;99.90
1570;DHT22;778;50.120;8.698;2022-09-03T13:25:51;23.30;99.90
1570;DHT22;778;50.120;8.698;2022-09-03T13:28:32;23.40;99.90
1570;DHT22;778;50.120;8.698;2022-09-03T13:31:18;23.20;99.90
1570;DHT22;778;50.120;8.698;2022-09-03T13:33:56;23.20;99.90
1570;DHT22;778;50.120;8.698;2022-09-03T13:36:33;23.20;99.90
1570;DHT22;778;50.120;8.698;2022-09-03T13:39:20;23.20;99.90
1570;DHT22;778;50.120;8.698;2022-09-03T13:41:56;23.20;99.90
1570;DHT22;778;50.120;8.698;2022-09-03T13:44:39;23.30;99.90
1570;DHT22;778;50.120;8.698;2022-09-03T13:47:19;23.30;99.90
1570;DHT22;778;50.120;8.698;2022-09-03T13:50:02;23.30;99.90
1570;DHT22;778;50.120;8.698;2022-09-03T13:52:52;23.30;99.90
1570;DHT22;778;50.120;8.698;2022-09-03T13:55:30;23.30;99.90
1570;DHT22;778;50.120;8.698;2022-09-03T13:58:03;23.40;99.90
1570;DHT22;778;50.120;8.698;2022-09-03T14:00:39;23.60;99.90
1570;DHT22;778;50.120;8.698;2022-09-03T14:03:16;23.60;99.90
1570;DHT22;778;50.120;8.698;2022-09-03T14:06:02;23.60;99.90
1570;DHT22;778;50.120;8.698;2022-09-03T14:08:44;23.60;99.90
1570;DHT22;778;50.120;8.698;2022-09-03T14:11:31;23.80;99.90
1570;DHT22;778;50.120;8.698;2022-09-03T14:14:11;23.80;99.90
1570;DHT22;778;50.120;8.698;2022-09-03T14:16:46;23.80;99.90
1570;DHT22;778;50.120;8.698;2022-09-03T14:19:21;23.80;99.90
1570;DHT22;778;50.120;8.698;2022-09-03T14:21:59;23.80;99.90
1570;DHT22;778;50.120;8.698;2022-09-03T14:24:39;23.70;99.90
1570;DHT22;778;50.120;8.698;2022-09-03T14:27:22;23.80;99.90
1570;DHT22;778;50.120;8.698;2022-09-03T14:29:53;23.70;99.90
1570;DHT22;778;50.120;8.698;2022-09-03T14:32:31;23.70;99.90
1570;DHT22;778;50.120;8.698;2022-09-03T14:35:29;23.70;99.90
1570;DHT22;778;50.120;8.698;2022-09-03T14:41:50;23.60;99.90
1570;DHT22;778;50.120;8.698;2022-09-03T14:45:01;23.70;99.90
1570;DHT22;778;50.120;8.698;2022-09-03T14:48:14;23.50;99.90
1570;DHT22;778;50.120;8.698;2022-09-03T14:51:11;23.50;99.90
1570;DHT22;778;50.120;8.698;2022-09-03T14:54:09;23.50;99.90
1570;DHT22;778;50.120;8.698;2022-09-03T14:57:06;23.50;99.90
1570;DHT22;778;50.120;8.698;2022-09-03T14:59:54;23.40;99.90
1570;DHT22;778;50.120;8.698;2022-09-03T15:06:10;23.40;99.90
1570;DHT22;778;50.120;8.698;2022-09-03T15:08:53;23.50;99.90
1570;DHT22;778;50.120;8.698;2022-09-03T15:11:30;23.60;99.90
1570;DHT22;778;50.120;8.698;2022-09-03T15:14:07;23.70;99.90
1570;DHT22;778;50.120;8.698;2022-09-03T15:16:46;23.70;99.90
1570;DHT22;778;50.120;8.698;2022-09-03T15:19:40;23.70;99.90
1570;DHT22;778;50.120;8.698;2022-09-03T15:22:32;23.90;99.90
1570;DHT22;778;50.120;8.698;2022-09-03T15:25:15;23.90;99.90
1570;DHT22;778;50.120;8.698;2022-09-03T15:28:03;24.00;99.90
1570;DHT22;778;50.120;8.698;2022-09-03T15:30:40;24.10;99.90
1570;DHT22;778;50.120;8.698;2022-09-03T15:33:20;24.00;99.90
1570;DHT22;778;50.120;8.698;2022-09-03T15:36:14;24.10;99.90
1570;DHT22;778;50.120;8.698;2022-09-03T15:38:49;24.10;99.90
1570;DHT22;778;50.120;8.698;2022-09-03T15:41:39;24.10;99.90
1570;DHT22;778;50.120;8.698;2022-09-03T15:44:12;24.20;99.90
1570;DHT22;778;50.120;8.698;2022-09-03T15:46:53;24.10;99.90
1570;DHT22;778;50.120;8.698;2022-09-03T15:49:36;24.00;99.90
1570;DHT22;778;50.120;8.698;2022-09-03T15:52:25;23.90;99.90
1570;DHT22;778;50.120;8.698;2022-09-03T15:55:01;23.80;99.90
1570;DHT22;778;50.120;8.698;2022-09-03T15:57:40;23.70;99.90
1570;DHT22;778;50.120;8.698;2022-09-03T16:00:17;23.70;99.90
1570;DHT22;778;50.120;8.698;2022-09-03T16:02:52;23.70;99.90
1570;DHT22;778;50.120;8.698;2022-09-03T16:05:35;23.60;99.90
1570;DHT22;778;50.120;8.698;2022-09-03T16:08:12;23.60;99.90
1570;DHT22;778;50.120;8.698;2022-09-03T16:10:57;23.60;99.90
1570;DHT22;778;50.120;8.698;2022-09-03T16:13:42;23.60;99.90
1570;DHT22;778;50.120;8.698;2022-09-03T16:16:20;23.50;99.90
1570;DHT22;778;50.120;8.698;2022-09-03T16:18:58;23.50;99.90
1570;DHT22;778;50.120;8.698;2022-09-03T16:21:35;23.50;99.90
1570;DHT22;778;50.120;8.698;2022-09-03T16:24:14;23.60;99.90
1570;DHT22;778;50.120;8.698;2022-09-03T16:26:50;23.70;99.90
1570;DHT22;778;50.120;8.698;2022-09-03T16:29:26;23.70;99.90
1570;DHT22;778;50.120;8.698;2022-09-03T16:32:19;23.80;99.90
1570;DHT22;778;50.120;8.698;2022-09-03T16:35:04;23.70;99.90
1570;DHT22;778;50.120;8.698;2022-09-03T16:37:46;23.70;99.90
1570;DHT22;778;50.120;8.698;2022-09-03T16:40:41;23.60;99.90
1570;DHT22;778;50.120;8.698;2022-09-03T16:43:22;23.60;99.90
1570;DHT22;778;50.120;8.698;2022-09-03T16:46:18;23.50;99.90
1570;DHT22;778;50.120;8.698;2022-09-03T16:49:15;23.50;99.90
1570;DHT22;778;50.120;8.698;2022-09-03T16:51:59;23.40;99.90
1570;DHT22;778;50.120;8.698;2022-09-03T16:54:45;23.40;99.90
1570;DHT22;778;50.120;8.698;2022-09-03T16:57:32;23.40;99.90
1570;DHT22;778;50.120;8.698;2022-09-03T17:00:11;23.30;99.90
1570;DHT22;778;50.120;8.698;2022-09-03T17:09:20;23.20;99.90
1570;DHT22;778;50.120;8.698;2022-09-03T17:12:02;23.20;99.90
1570;DHT22;778;50.120;8.698;2022-09-03T17:14:48;23.20;99.90
1570;DHT22;778;50.120;8.698;2022-09-03T17:17:40;23.20;99.90
1570;DHT22;778;50.120;8.698;2022-09-03T17:20:19;23.10;99.90
1570;DHT22;778;50.120;8.698;2022-09-03T17:22:58;23.10;99.90
1570;DHT22;778;50.120;8.698;2022-09-03T17:25:38;23.10;99.90
1570;DHT22;778;50.120;8.698;2022-09-03T17:28:18;23.00;99.90
1570;DHT22;778;50.120;8.698;2022-09-03T17:30:56;22.90;99.90
1570;DHT22;778;50.120;8.698;2022-09-03T17:33:50;22.70;99.90
1570;DHT22;778;50.120;8.698;2022-09-03T17:36:25;22.60;99.90
1570;DHT22;778;50.120;8.698;2022-09-03T17:39:14;22.40;99.90
1570;DHT22;778;50.120;8.698;2022-09-03T17:41:51;22.30;99.90
1570;DHT22;778;50.120;8.698;2022-09-03T17:44:32;22.30;99.90
1570;DHT22;778;50.120;8.698;2022-09-03T17:47:31;22.30;99.90
1570;DHT22;778;50.120;8.698;2022-09-03T17:50:22;22.30;99.90